sensor_id;sensor_type;location;lat;lon;timestamp;pressure;altitude;pressure_sealevel;temperature;humidity
39823;BME280;25499;53.958;10.970;2023-05-09T05:22:44;101804.16;;;9.30;83.60
39823;BME280;25499;53.958;10.970;2023-05-09T05:25:12;101806.00;;;9.34;83.27
39823;BME280;25499;53.958;10.970;2023-05-09T05:27:38;101800.13;;;9.44;82.54
39823;BME280;25499;53.958;10.970;2023-05-09T05:30:06;101797.66;;;9.50;82.58
39823;BME280;25499;53.958;10.970;2023-05-09T05:32:33;101793.47;;;9.60;82.49
39823;BME280;25499;53.958;10.970;2023-05-09T05:35:00;101805.63;;;9.61;83.00
39823;BME280;25499;53.958;10.970;2023-05-09T05:37:29;101783.97;;;9.61;82.15
39823;BME280;25499;53.958;10.970;2023-05-09T05:39:57;101777.16;;;9.69;81.07
39823;BME280;25499;53.958;10.970;2023-05-09T05:42:24;101765.09;;;9.74;80.21
39823;BME280;25499;53.958;10.970;2023-05-09T05:44:51;101780.97;;;9.88;80.84
39823;BME280;25499;53.958;10.970;2023-05-09T05:47:18;101778.34;;;9.88;80.38
39823;BME280;25499;53.958;10.970;2023-05-09T05:49:45;101775.91;;;9.99;80.27
39823;BME280;25499;53.958;10.970;2023-05-09T05:52:12;101767.44;;;10.12;80.09
39823;BME280;25499;53.958;10.970;2023-05-09T05:54:39;101768.25;;;10.06;79.03
39823;BME280;25499;53.958;10.970;2023-05-09T05:57:07;101772.72;;;10.17;79.17
39823;BME280;25499;53.958;10.970;2023-05-09T05:59:34;101764.94;;;10.20;79.04
39823;BME280;25499;53.958;10.970;2023-05-09T06:02:00;101777.44;;;10.39;79.72
39823;BME280;25499;53.958;10.970;2023-05-09T06:04:27;101767.31;;;10.61;78.29
39823;BME280;25499;53.958;10.970;2023-05-09T06:06:54;101753.38;;;10.59;77.75
39823;BME280;25499;53.958;10.970;2023-05-09T06:09:20;101752.56;;;10.63;76.58
39823;BME280;25499;53.958;10.970;2023-05-09T06:11:47;101753.75;;;10.88;77.27
39823;BME280;25499;53.958;10.970;2023-05-09T06:14:15;101751.34;;;11.05;76.64
39823;BME280;25499;53.958;10.970;2023-05-09T06:16:42;101748.06;;;11.26;75.82
39823;BME280;25499;53.958;10.970;2023-05-09T06:19:09;101750.78;;;11.38;75.31
39823;BME280;25499;53.958;10.970;2023-05-09T06:21:36;101746.63;;;11.56;75.15
39823;BME280;25499;53.958;10.970;2023-05-09T06:24:03;101753.81;;;11.83;74.61
39823;BME280;25499;53.958;10.970;2023-05-09T06:26:30;101712.88;;;11.76;71.72
39823;BME280;25499;53.958;10.970;2023-05-09T06:28:57;101733.94;;;11.98;72.33
39823;BME280;25499;53.958;10.970;2023-05-09T06:31:25;101703.47;;;11.92;69.75
39823;BME280;25499;53.958;10.970;2023-05-09T06:33:53;101694.75;;;11.93;68.93
39823;BME280;25499;53.958;10.970;2023-05-09T06:36:20;101689.44;;;11.84;68.37
39823;BME280;25499;53.958;10.970;2023-05-09T06:38:46;101686.13;;;12.05;68.57
39823;BME280;25499;53.958;10.970;2023-05-09T06:41:15;101695.78;;;12.21;68.75
39823;BME280;25499;53.958;10.970;2023-05-09T06:43:41;101702.88;;;12.41;70.26
39823;BME280;25499;53.958;10.970;2023-05-09T06:46:08;101696.00;;;12.71;69.74
39823;BME280;25499;53.958;10.970;2023-05-09T06:48:37;101650.66;;;12.47;67.49
39823;BME280;25499;53.958;10.970;2023-05-09T06:51:04;101692.56;;;12.84;68.99
39823;BME280;25499;53.958;10.970;2023-05-09T06:53:31;101665.56;;;12.88;68.13
39823;BME280;25499;53.958;10.970;2023-05-09T06:55:57;101635.09;;;12.90;66.50
39823;BME280;25499;53.958;10.970;2023-05-09T06:58:25;101640.31;;;12.96;66.64
39823;BME280;25499;53.958;10.970;2023-05-09T07:00:52;101645.56;;;13.01;66.61
39823;BME280;25499;53.958;10.970;2023-05-09T07:03:19;101644.69;;;13.16;66.28
39823;BME280;25499;53.958;10.970;2023-05-09T07:05:47;101641.22;;;13.23;66.04
39823;BME280;25499;53.958;10.970;2023-05-09T07:08:14;101640.38;;;13.33;65.54
39823;BME280;25499;53.958;10.970;2023-05-09T07:10:40;101648.22;;;13.52;66.33
39823;BME280;25499;53.958;10.970;2023-05-09T07:13:07;101638.59;;;13.66;65.09
39823;BME280;25499;53.958;10.970;2023-05-09T07:15:34;101622.03;;;13.72;65.05
39823;BME280;25499;53.958;10.970;2023-05-09T07:18:01;101617.59;;;13.85;64.19
39823;BME280;25499;53.958;10.970;2023-05-09T07:20:27;101600.19;;;13.77;63.08
39823;BME280;25499;53.958;10.970;2023-05-09T07:22:55;101646.28;;;14.23;64.89
39823;BME280;25499;53.958;10.970;2023-05-09T07:25:23;101630.44;;;14.63;64.13
39823;BME280;25499;53.958;10.970;2023-05-09T07:27:50;101585.88;;;14.52;62.10
39823;BME280;25499;53.958;10.970;2023-05-09T07:30:16;101593.84;;;14.39;62.86
39823;BME280;25499;53.958;10.970;2023-05-09T07:32:43;101611.38;;;14.26;63.17
39823;BME280;25499;53.958;10.970;2023-05-09T07:35:10;101576.28;;;14.53;62.37
39823;BME280;25499;53.958;10.970;2023-05-09T07:37:37;101580.47;;;14.83;61.83
39823;BME280;25499;53.958;10.970;2023-05-09T07:40:07;101562.19;;;14.77;60.94
39823;BME280;25499;53.958;10.970;2023-05-09T07:42:34;101541.06;;;14.94;59.63
39823;BME280;25499;53.958;10.970;2023-05-09T07:45:01;101552.97;;;15.30;59.12
39823;BME280;25499;53.958;10.970;2023-05-09T07:47:30;101539.97;;;15.20;58.74
39823;BME280;25499;53.958;10.970;2023-05-09T07:49:57;101561.72;;;15.31;60.56
39823;BME280;25499;53.958;10.970;2023-05-09T07:52:24;101552.53;;;15.74;59.35
39823;BME280;25499;53.958;10.970;2023-05-09T07:54:51;101521.03;;;15.71;58.63
39823;BME280;25499;53.958;10.970;2023-05-09T07:57:20;101494.03;;;15.59;56.95
39823;BME280;25499;53.958;10.970;2023-05-09T07:59:46;101548.09;;;15.82;58.54
39823;BME280;25499;53.958;10.970;2023-05-09T08:02:13;101510.69;;;15.58;56.95
39823;BME280;25499;53.958;10.970;2023-05-09T08:04:40;101516.25;;;16.05;56.52
39823;BME280;25499;53.958;10.970;2023-05-09T08:07:07;101492.59;;;15.32;55.95
39823;BME280;25499;53.958;10.970;2023-05-09T08:09:34;101540.28;;;15.71;57.74
39823;BME280;25499;53.958;10.970;2023-05-09T08:12:00;101546.75;;;16.15;58.37
39823;BME280;25499;53.958;10.970;2023-05-09T08:14:28;101515.16;;;16.23;57.07
39823;BME280;25499;53.958;10.970;2023-05-09T08:16:55;101509.47;;;16.49;56.81
39823;BME280;25499;53.958;10.970;2023-05-09T08:19:22;101473.19;;;16.71;55.36
39823;BME280;25499;53.958;10.970;2023-05-09T08:21:50;101470.88;;;16.51;54.65
39823;BME280;25499;53.958;10.970;2023-05-09T08:24:17;101460.19;;;16.64;54.76
39823;BME280;25499;53.958;10.970;2023-05-09T08:26:44;101478.25;;;16.84;54.93
39823;BME280;25499;53.958;10.970;2023-05-09T08:29:11;101476.75;;;16.69;55.96
39823;BME280;25499;53.958;10.970;2023-05-09T08:31:39;101468.63;;;16.83;55.61
39823;BME280;25499;53.958;10.970;2023-05-09T08:34:06;101440.59;;;17.30;53.44
39823;BME280;25499;53.958;10.970;2023-05-09T08:36:33;101469.72;;;17.19;54.43
39823;BME280;25499;53.958;10.970;2023-05-09T08:38:59;101454.19;;;17.52;53.36
39823;BME280;25499;53.958;10.970;2023-05-09T08:41:26;101432.06;;;17.61;52.01
39823;BME280;25499;53.958;10.970;2023-05-09T08:43:54;101429.88;;;17.39;52.16
39823;BME280;25499;53.958;10.970;2023-05-09T08:46:26;101444.56;;;17.49;53.03
39823;BME280;25499;53.958;10.970;2023-05-09T08:48:55;101473.03;;;17.74;54.09
39823;BME280;25499;53.958;10.970;2023-05-09T08:51:23;101434.47;;;18.11;51.88
39823;BME280;25499;53.958;10.970;2023-05-09T08:53:50;101408.31;;;18.03;51.32
39823;BME280;25499;53.958;10.970;2023-05-09T08:56:17;101429.59;;;18.31;51.35
39823;BME280;25499;53.958;10.970;2023-05-09T08:58:45;101392.88;;;18.23;50.27
39823;BME280;25499;53.958;10.970;2023-05-09T09:01:13;101371.25;;;18.09;50.35
39823;BME280;25499;53.958;10.970;2023-05-09T09:03:40;101371.78;;;18.23;49.81
39823;BME280;25499;53.958;10.970;2023-05-09T09:06:13;101418.56;;;18.15;52.07
39823;BME280;25499;53.958;10.970;2023-05-09T09:08:41;101413.66;;;18.00;51.72
39823;BME280;25499;53.958;10.970;2023-05-09T09:11:10;101411.63;;;18.11;51.82
39823;BME280;25499;53.958;10.970;2023-05-09T09:13:39;101380.09;;;18.08;50.54
39823;BME280;25499;53.958;10.970;2023-05-09T09:16:08;101375.47;;;18.52;50.76
39823;BME280;25499;53.958;10.970;2023-05-09T09:18:35;101422.00;;;18.89;51.02
39823;BME280;25499;53.958;10.970;2023-05-09T09:21:05;101424.06;;;18.76;51.37
39823;BME280;25499;53.958;10.970;2023-05-09T09:23:36;101356.50;;;18.71;49.00
39823;BME280;25499;53.958;10.970;2023-05-09T09:26:04;101390.50;;;18.83;50.21
39823;BME280;25499;53.958;10.970;2023-05-09T09:28:33;101394.38;;;19.03;50.16
39823;BME280;25499;53.958;10.970;2023-05-09T09:31:01;101398.56;;;18.75;51.11
39823;BME280;25499;53.958;10.970;2023-05-09T09:33:28;101402.09;;;18.76;51.09
39823;BME280;25499;53.958;10.970;2023-05-09T09:35:55;101378.75;;;19.54;49.87
39823;BME280;25499;53.958;10.970;2023-05-09T09:38:23;101360.34;;;18.59;48.65
39823;BME280;25499;53.958;10.970;2023-05-09T09:40:56;101421.56;;;19.05;51.70
39823;BME280;25499;53.958;10.970;2023-05-09T09:43:27;101380.25;;;19.63;49.81
39823;BME280;25499;53.958;10.970;2023-05-09T09:45:54;101318.66;;;19.05;48.58
39823;BME280;25499;53.958;10.970;2023-05-09T09:48:23;101391.44;;;19.12;49.61
39823;BME280;25499;53.958;10.970;2023-05-09T09:50:50;101333.00;;;19.54;48.39
39823;BME280;25499;53.958;10.970;2023-05-09T09:53:19;101280.91;;;18.70;47.42
39823;BME280;25499;53.958;10.970;2023-05-09T09:55:48;101291.50;;;18.37;47.48
39823;BME280;25499;53.958;10.970;2023-05-09T09:58:18;101315.19;;;18.38;49.11
39823;BME280;25499;53.958;10.970;2023-05-09T10:00:46;101353.41;;;19.19;49.20
39823;BME280;25499;53.958;10.970;2023-05-09T10:03:15;101320.59;;;19.56;47.25
39823;BME280;25499;53.958;10.970;2023-05-09T10:05:42;101337.69;;;20.27;47.53
39823;BME280;25499;53.958;10.970;2023-05-09T10:08:09;101307.75;;;20.00;47.37
39823;BME280;25499;53.958;10.970;2023-05-09T10:10:36;101280.94;;;20.11;45.71
39823;BME280;25499;53.958;10.970;2023-05-09T10:13:04;101308.03;;;20.18;46.61
39823;BME280;25499;53.958;10.970;2023-05-09T10:15:34;101318.28;;;20.02;47.53
39823;BME280;25499;53.958;10.970;2023-05-09T10:18:01;101288.59;;;19.93;47.26
39823;BME280;25499;53.958;10.970;2023-05-09T10:20:29;101326.16;;;20.03;47.85
39823;BME280;25499;53.958;10.970;2023-05-09T10:22:58;101279.94;;;19.88;47.08
39823;BME280;25499;53.958;10.970;2023-05-09T10:25:27;101295.66;;;20.20;47.48
39823;BME280;25499;53.958;10.970;2023-05-09T10:27:59;101259.19;;;20.28;46.00
39823;BME280;25499;53.958;10.970;2023-05-09T10:30:27;101247.13;;;20.21;45.29
39823;BME280;25499;53.958;10.970;2023-05-09T10:33:02;101259.09;;;20.06;46.16
39823;BME280;25499;53.958;10.970;2023-05-09T10:35:32;101274.31;;;20.24;47.15
39823;BME280;25499;53.958;10.970;2023-05-09T10:38:01;101223.47;;;20.41;44.93
39823;BME280;25499;53.958;10.970;2023-05-09T10:40:29;101211.38;;;20.34;44.40
39823;BME280;25499;53.958;10.970;2023-05-09T10:42:56;101288.28;;;20.78;46.52
39823;BME280;25499;53.958;10.970;2023-05-09T10:45:23;101264.94;;;20.90;46.00
39823;BME280;25499;53.958;10.970;2023-05-09T10:47:50;101183.78;;;20.41;43.43
39823;BME280;25499;53.958;10.970;2023-05-09T10:50:19;101263.88;;;20.70;45.73
39823;BME280;25499;53.958;10.970;2023-05-09T10:53:07;101227.78;;;20.44;45.25
39823;BME280;25499;53.958;10.970;2023-05-09T10:55:37;101148.09;;;19.54;43.04
39823;BME280;25499;53.958;10.970;2023-05-09T10:58:18;101221.44;;;19.46;45.84
39823;BME280;25499;53.958;10.970;2023-05-09T11:00:46;101194.19;;;19.97;45.41
39823;BME280;25499;53.958;10.970;2023-05-09T11:03:12;101201.81;;;20.06;45.31
39823;BME280;25499;53.958;10.970;2023-05-09T11:05:41;101247.09;;;20.95;45.47
39823;BME280;25499;53.958;10.970;2023-05-09T11:08:17;101206.09;;;20.58;44.90
39823;BME280;25499;53.958;10.970;2023-05-09T11:10:44;101198.56;;;20.94;44.95
39823;BME280;25499;53.958;10.970;2023-05-09T11:13:12;101155.69;;;20.39;43.43
39823;BME280;25499;53.958;10.970;2023-05-09T11:15:49;101159.84;;;20.21;44.04
39823;BME280;25499;53.958;10.970;2023-05-09T11:18:16;101133.84;;;20.34;42.43
39823;BME280;25499;53.958;10.970;2023-05-09T11:20:47;101162.81;;;19.88;44.32
39823;BME280;25499;53.958;10.970;2023-05-09T11:23:15;101136.63;;;20.98;41.99
39823;BME280;25499;53.958;10.970;2023-05-09T11:25:45;101176.31;;;20.76;43.78
39823;BME280;25499;53.958;10.970;2023-05-09T11:28:24;101196.94;;;20.68;44.38
39823;BME280;25499;53.958;10.970;2023-05-09T11:30:52;101095.19;;;20.29;42.45
39823;BME280;25499;53.958;10.970;2023-05-09T11:33:23;101060.31;;;20.65;40.87
39823;BME280;25499;53.958;10.970;2023-05-09T11:36:16;101080.00;;;20.35;42.19
39823;BME280;25499;53.958;10.970;2023-05-09T11:38:44;101104.31;;;20.44;42.67
39823;BME280;25499;53.958;10.970;2023-05-09T11:41:12;101103.53;;;20.88;42.26
39823;BME280;25499;53.958;10.970;2023-05-09T11:43:41;101077.44;;;20.55;41.83
39823;BME280;25499;53.958;10.970;2023-05-09T11:46:08;101013.84;;;20.80;39.69
39823;BME280;25499;53.958;10.970;2023-05-09T11:48:38;101092.38;;;20.34;42.09
39823;BME280;25499;53.958;10.970;2023-05-09T11:51:06;101022.03;;;20.74;40.19
39823;BME280;25499;53.958;10.970;2023-05-09T11:53:39;101076.97;;;20.45;41.17
39823;BME280;25499;53.958;10.970;2023-05-09T11:56:09;101050.81;;;20.60;41.22
39823;BME280;25499;53.958;10.970;2023-05-09T11:58:37;101067.19;;;20.47;41.82
39823;BME280;25499;53.958;10.970;2023-05-09T12:01:04;101079.59;;;21.12;41.11
39823;BME280;25499;53.958;10.970;2023-05-09T12:03:31;101107.50;;;21.41;41.57
39823;BME280;25499;53.958;10.970;2023-05-09T12:05:58;101024.06;;;21.10;40.02
39823;BME280;25499;53.958;10.970;2023-05-09T12:08:25;101071.72;;;20.44;41.94
39823;BME280;25499;53.958;10.970;2023-05-09T12:10:54;101081.84;;;20.33;43.76
39823;BME280;25499;53.958;10.970;2023-05-09T12:13:23;101015.63;;;20.58;40.73
39823;BME280;25499;53.958;10.970;2023-05-09T12:15:50;101084.13;;;20.65;42.37
39823;BME280;25499;53.958;10.970;2023-05-09T12:18:18;101094.41;;;20.49;43.64
39823;BME280;25499;53.958;10.970;2023-05-09T12:20:47;101117.09;;;21.01;44.19
39823;BME280;25499;53.958;10.970;2023-05-09T12:23:14;101037.50;;;20.63;40.99
39823;BME280;25499;53.958;10.970;2023-05-09T12:25:47;101054.03;;;20.90;42.02
39823;BME280;25499;53.958;10.970;2023-05-09T12:28:15;100980.63;;;21.14;40.38
39823;BME280;25499;53.958;10.970;2023-05-09T12:30:43;100953.69;;;20.63;39.38
39823;BME280;25499;53.958;10.970;2023-05-09T12:33:10;100953.69;;;20.62;39.34
39823;BME280;25499;53.958;10.970;2023-05-09T12:35:38;101020.19;;;20.76;40.52
39823;BME280;25499;53.958;10.970;2023-05-09T12:38:06;101030.78;;;20.76;41.75
39823;BME280;25499;53.958;10.970;2023-05-09T12:40:33;101038.03;;;20.49;42.37
39823;BME280;25499;53.958;10.970;2023-05-09T12:42:59;100918.72;;;20.55;39.44
39823;BME280;25499;53.958;10.970;2023-05-09T12:45:30;100846.69;;;20.28;36.68
39823;BME280;25499;53.958;10.970;2023-05-09T12:47:57;100860.41;;;20.16;37.32
39823;BME280;25499;53.958;10.970;2023-05-09T12:50:30;100935.06;;;20.22;38.48
39823;BME280;25499;53.958;10.970;2023-05-09T12:53:00;100872.22;;;20.29;37.81
39823;BME280;25499;53.958;10.970;2023-05-09T12:55:27;100929.06;;;20.39;39.05
39823;BME280;25499;53.958;10.970;2023-05-09T12:57:58;100887.94;;;20.32;37.93
39823;BME280;25499;53.958;10.970;2023-05-09T13:00:26;100856.69;;;20.42;37.15
39823;BME280;25499;53.958;10.970;2023-05-09T13:02:54;100854.41;;;20.12;36.67
39823;BME280;25499;53.958;10.970;2023-05-09T13:05:22;101009.16;;;20.21;40.93
39823;BME280;25499;53.958;10.970;2023-05-09T13:07:50;100960.03;;;20.37;39.89
39823;BME280;25499;53.958;10.970;2023-05-09T13:10:19;100905.00;;;20.25;38.98
39823;BME280;25499;53.958;10.970;2023-05-09T13:12:49;100815.28;;;20.00;36.05
39823;BME280;25499;53.958;10.970;2023-05-09T13:15:18;100850.66;;;19.96;36.72
39823;BME280;25499;53.958;10.970;2023-05-09T13:17:46;100830.44;;;19.72;36.80
39823;BME280;25499;53.958;10.970;2023-05-09T13:20:14;100863.22;;;19.67;38.47
39823;BME280;25499;53.958;10.970;2023-05-09T13:22:43;100931.06;;;19.66;39.63
39823;BME280;25499;53.958;10.970;2023-05-09T13:25:10;100842.41;;;19.59;37.82
39823;BME280;25499;53.958;10.970;2023-05-09T13:27:37;100832.69;;;19.60;37.69
39823;BME280;25499;53.958;10.970;2023-05-09T13:30:05;100805.94;;;19.69;36.65
39823;BME280;25499;53.958;10.970;2023-05-09T13:32:32;100817.81;;;19.81;36.52
39823;BME280;25499;53.958;10.970;2023-05-09T13:35:00;100819.44;;;19.61;37.25
39823;BME280;25499;53.958;10.970;2023-05-09T13:37:29;100755.34;;;19.56;35.16
39823;BME280;25499;53.958;10.970;2023-05-09T13:39:55;100803.28;;;19.69;35.80
39823;BME280;25499;53.958;10.970;2023-05-09T13:42:23;100763.28;;;19.56;35.76
39823;BME280;25499;53.958;10.970;2023-05-09T13:44:50;100796.28;;;19.46;36.89
39823;BME280;25499;53.958;10.970;2023-05-09T13:47:17;100778.38;;;19.30;36.64
39823;BME280;25499;53.958;10.970;2023-05-09T13:49:44;100813.06;;;19.43;37.13
39823;BME280;25499;53.958;10.970;2023-05-09T13:52:11;100790.97;;;19.24;37.87
39823;BME280;25499;53.958;10.970;2023-05-09T13:54:41;100828.50;;;19.08;37.91
39823;BME280;25499;53.958;10.970;2023-05-09T13:57:08;100832.47;;;19.20;38.23
39823;BME280;25499;53.958;10.970;2023-05-09T13:59:34;100773.03;;;19.10;37.80
39823;BME280;25499;53.958;10.970;2023-05-09T14:02:01;100836.81;;;19.21;38.17
39823;BME280;25499;53.958;10.970;2023-05-09T14:04:29;100794.56;;;18.97;38.24
39823;BME280;25499;53.958;10.970;2023-05-09T14:06:57;100781.97;;;19.06;37.97
39823;BME280;25499;53.958;10.970;2023-05-09T14:09:24;100798.09;;;19.22;38.25
39823;BME280;25499;53.958;10.970;2023-05-09T14:11:54;100796.31;;;19.22;38.24
39823;BME280;25499;53.958;10.970;2023-05-09T14:14:23;100842.91;;;19.23;38.85
39823;BME280;25499;53.958;10.970;2023-05-09T14:16:50;100827.97;;;19.22;38.84
39823;BME280;25499;53.958;10.970;2023-05-09T14:19:19;100855.75;;;19.32;39.85
39823;BME280;25499;53.958;10.970;2023-05-09T14:21:46;100800.72;;;19.22;39.04
39823;BME280;25499;53.958;10.970;2023-05-09T14:24:12;100731.41;;;18.94;36.76
39823;BME280;25499;53.958;10.970;2023-05-09T14:26:39;100767.13;;;19.03;37.66
39823;BME280;25499;53.958;10.970;2023-05-09T14:29:08;100738.75;;;18.86;37.59
39823;BME280;25499;53.958;10.970;2023-05-09T14:31:34;100800.00;;;18.94;38.49
39823;BME280;25499;53.958;10.970;2023-05-09T14:34:01;100832.34;;;18.99;39.71
39823;BME280;25499;53.958;10.970;2023-05-09T14:36:29;100759.59;;;18.92;37.52
39823;BME280;25499;53.958;10.970;2023-05-09T14:38:56;100769.41;;;18.89;39.05
39823;BME280;25499;53.958;10.970;2023-05-09T14:41:24;100770.53;;;18.81;38.54
39823;BME280;25499;53.958;10.970;2023-05-09T14:43:52;100758.44;;;18.76;37.74
39823;BME280;25499;53.958;10.970;2023-05-09T14:46:20;100745.25;;;18.76;38.32
39823;BME280;25499;53.958;10.970;2023-05-09T14:48:49;100759.63;;;18.67;38.04
39823;BME280;25499;53.958;10.970;2023-05-09T14:51:16;100773.72;;;18.66;39.21
39823;BME280;25499;53.958;10.970;2023-05-09T14:53:43;100825.22;;;18.76;40.44
39823;BME280;25499;53.958;10.970;2023-05-09T14:56:10;100814.53;;;18.81;40.18
39823;BME280;25499;53.958;10.970;2023-05-09T14:58:37;100774.16;;;18.79;39.25
39823;BME280;25499;53.958;10.970;2023-05-09T15:01:04;100798.47;;;18.87;39.79
39823;BME280;25499;53.958;10.970;2023-05-09T15:03:32;100828.38;;;18.88;39.78
39823;BME280;25499;53.958;10.970;2023-05-09T15:05:58;100755.91;;;18.73;39.30
39823;BME280;25499;53.958;10.970;2023-05-09T15:08:25;100769.25;;;18.93;38.45
39823;BME280;25499;53.958;10.970;2023-05-09T15:10:52;100745.94;;;18.81;38.80
39823;BME280;25499;53.958;10.970;2023-05-09T15:13:19;100720.63;;;18.75;37.90
39823;BME280;25499;53.958;10.970;2023-05-09T15:15:46;100751.88;;;18.88;38.79
39823;BME280;25499;53.958;10.970;2023-05-09T15:18:13;100778.84;;;18.96;39.82
39823;BME280;25499;53.958;10.970;2023-05-09T15:20:42;100777.78;;;19.00;40.21
39823;BME280;25499;53.958;10.970;2023-05-09T15:23:10;100744.16;;;18.81;38.96
39823;BME280;25499;53.958;10.970;2023-05-09T15:25:39;100731.94;;;18.79;38.87
39823;BME280;25499;53.958;10.970;2023-05-09T15:28:06;100707.75;;;18.68;38.42
39823;BME280;25499;53.958;10.970;2023-05-09T15:30:33;100704.06;;;18.72;37.85
39823;BME280;25499;53.958;10.970;2023-05-09T15:33:00;100682.47;;;18.62;37.54
39823;BME280;25499;53.958;10.970;2023-05-09T15:35:27;100801.78;;;18.69;40.93
39823;BME280;25499;53.958;10.970;2023-05-09T15:37:55;100716.44;;;18.70;39.97
39823;BME280;25499;53.958;10.970;2023-05-09T15:40:22;100693.41;;;18.75;38.40
39823;BME280;25499;53.958;10.970;2023-05-09T15:42:48;100719.38;;;18.62;39.11
39823;BME280;25499;53.958;10.970;2023-05-09T15:45:15;100674.09;;;18.51;38.20
39823;BME280;25499;53.958;10.970;2023-05-09T15:47:42;100714.50;;;18.51;39.38
39823;BME280;25499;53.958;10.970;2023-05-09T15:50:09;100693.47;;;18.50;38.68
39823;BME280;25499;53.958;10.970;2023-05-09T15:52:36;100666.81;;;18.34;38.21
39823;BME280;25499;53.958;10.970;2023-05-09T15:55:05;100650.75;;;18.16;38.77
39823;BME280;25499;53.958;10.970;2023-05-09T15:57:32;100682.50;;;18.13;38.90
39823;BME280;25499;53.958;10.970;2023-05-09T15:59:59;100665.88;;;18.11;38.65
39823;BME280;25499;53.958;10.970;2023-05-09T16:02:26;100664.25;;;18.07;39.20
39823;BME280;25499;53.958;10.970;2023-05-09T16:04:53;100661.66;;;18.05;38.87
39823;BME280;25499;53.958;10.970;2023-05-09T16:07:20;100716.19;;;18.03;40.24
39823;BME280;25499;53.958;10.970;2023-05-09T16:09:47;100716.09;;;18.06;40.28
39823;BME280;25499;53.958;10.970;2023-05-09T16:12:15;100699.50;;;18.04;40.16
39823;BME280;25499;53.958;10.970;2023-05-09T16:14:42;100706.75;;;17.98;40.89
39823;BME280;25499;53.958;10.970;2023-05-09T16:17:09;100678.91;;;17.91;39.58
39823;BME280;25499;53.958;10.970;2023-05-09T16:19:36;100733.28;;;17.92;41.53
39823;BME280;25499;53.958;10.970;2023-05-09T16:22:03;100719.16;;;17.94;41.38
39823;BME280;25499;53.958;10.970;2023-05-09T16:24:30;100702.94;;;17.80;41.15
39823;BME280;25499;53.958;10.970;2023-05-09T16:26:57;100714.25;;;17.82;41.93
39823;BME280;25499;53.958;10.970;2023-05-09T16:29:25;100719.75;;;17.76;41.53
39823;BME280;25499;53.958;10.970;2023-05-09T16:31:52;100742.28;;;17.84;42.24
39823;BME280;25499;53.958;10.970;2023-05-09T16:34:19;100734.56;;;17.78;42.74
39823;BME280;25499;53.958;10.970;2023-05-09T16:36:46;100750.19;;;17.84;42.76
39823;BME280;25499;53.958;10.970;2023-05-09T16:39:13;100764.22;;;17.85;42.83
39823;BME280;25499;53.958;10.970;2023-05-09T16:41:39;100762.66;;;17.79;43.26
39823;BME280;25499;53.958;10.970;2023-05-09T16:44:06;100763.44;;;17.81;43.91
39823;BME280;25499;53.958;10.970;2023-05-09T16:46:34;100728.22;;;17.85;42.46
39823;BME280;25499;53.958;10.970;2023-05-09T16:49:01;100711.09;;;17.72;42.44
39823;BME280;25499;53.958;10.970;2023-05-09T16:51:27;100756.56;;;17.77;43.42
39823;BME280;25499;53.958;10.970;2023-05-09T16:53:54;100747.75;;;17.78;43.16
39823;BME280;25499;53.958;10.970;2023-05-09T16:56:21;100739.13;;;17.73;43.50
39823;BME280;25499;53.958;10.970;2023-05-09T16:58:48;100759.44;;;17.69;43.87
39823;BME280;25499;53.958;10.970;2023-05-09T17:01:16;100732.22;;;17.70;42.90
39823;BME280;25499;53.958;10.970;2023-05-09T17:03:44;100739.34;;;17.67;43.68
39823;BME280;25499;53.958;10.970;2023-05-09T17:06:12;100725.50;;;17.62;43.65
39823;BME280;25499;53.958;10.970;2023-05-09T17:08:39;100745.63;;;17.63;44.50
39823;BME280;25499;53.958;10.970;2023-05-09T17:11:07;100738.03;;;17.53;44.10
39823;BME280;25499;53.958;10.970;2023-05-09T17:13:34;100736.41;;;17.49;44.31
39823;BME280;25499;53.958;10.970;2023-05-09T17:16:00;100739.03;;;17.49;44.60
39823;BME280;25499;53.958;10.970;2023-05-09T17:18:27;100726.84;;;17.47;44.40
39823;BME280;25499;53.958;10.970;2023-05-09T17:20:55;100728.72;;;17.43;44.30
39823;BME280;25499;53.958;10.970;2023-05-09T17:23:22;100704.31;;;17.38;43.79
39823;BME280;25499;53.958;10.970;2023-05-09T17:25:49;100740.41;;;17.34;44.64
39823;BME280;25499;53.958;10.970;2023-05-09T17:28:16;100709.81;;;17.30;43.99
39823;BME280;25499;53.958;10.970;2023-05-09T17:30:43;100703.97;;;17.21;44.09
39823;BME280;25499;53.958;10.970;2023-05-09T17:33:09;100705.66;;;17.23;44.08
39823;BME280;25499;53.958;10.970;2023-05-09T17:35:36;100691.81;;;17.17;43.64
39823;BME280;25499;53.958;10.970;2023-05-09T17:38:05;100687.59;;;17.12;43.17
39823;BME280;25499;53.958;10.970;2023-05-09T17:40:31;100674.53;;;17.09;43.41
39823;BME280;25499;53.958;10.970;2023-05-09T17:42:58;100657.97;;;17.06;42.72
39823;BME280;25499;53.958;10.970;2023-05-09T17:45:25;100674.84;;;16.99;42.58
39823;BME280;25499;53.958;10.970;2023-05-09T17:47:51;100658.28;;;16.95;43.10
39823;BME280;25499;53.958;10.970;2023-05-09T17:50:19;100666.59;;;16.81;43.64
39823;BME280;25499;53.958;10.970;2023-05-09T17:52:46;100654.19;;;16.86;43.29
39823;BME280;25499;53.958;10.970;2023-05-09T17:55:15;100676.41;;;16.74;43.67
39823;BME280;25499;53.958;10.970;2023-05-09T17:57:41;100681.09;;;16.65;44.11
39823;BME280;25499;53.958;10.970;2023-05-09T18:00:09;100712.13;;;16.52;45.02
39823;BME280;25499;53.958;10.970;2023-05-09T18:02:37;100692.13;;;16.46;45.07
39823;BME280;25499;53.958;10.970;2023-05-09T18:05:04;100672.88;;;16.46;44.41